sensor_id;sensor_type;location;lat;lon;timestamp;temperature;humidity
2030;DHT22;1020;48.854;8.830;2023-02-28T00:01:19;-2.10;99.90
2030;DHT22;1020;48.854;8.830;2023-02-28T00:03:45;-2.10;99.90
2030;DHT22;1020;48.854;8.830;2023-02-28T00:06:12;-2.10;99.90
2030;DHT22;1020;48.854;8.830;2023-02-28T00:08:39;-2.20;99.90
2030;DHT22;1020;48.854;8.830;2023-02-28T00:11:08;-2.20;99.90
2030;DHT22;1020;48.854;8.830;2023-02-28T00:13:38;-2.10;99.90
2030;DHT22;1020;48.854;8.830;2023-02-28T00:16:06;-2.20;99.90
2030;DHT22;1020;48.854;8.830;2023-02-28T00:18:34;-2.20;99.90
2030;DHT22;1020;48.854;8.830;2023-02-28T00:21:01;-2.20;99.90
2030;DHT22;1020;48.854;8.830;2023-02-28T00:23:28;-2.30;99.90
2030;DHT22;1020;48.854;8.830;2023-02-28T00:25:55;-2.20;99.90
2030;DHT22;1020;48.854;8.830;2023-02-28T00:28:22;-2.30;99.90
2030;DHT22;1020;48.854;8.830;2023-02-28T00:30:50;-2.30;99.90
2030;DHT22;1020;48.854;8.830;2023-02-28T00:33:17;-2.30;99.90
2030;DHT22;1020;48.854;8.830;2023-02-28T00:35:44;-0.70;99.90
2030;DHT22;1020;48.854;8.830;2023-02-28T00:38:12;-2.40;99.90
2030;DHT22;1020;48.854;8.830;2023-02-28T00:40:39;-2.30;99.90
2030;DHT22;1020;48.854;8.830;2023-02-28T00:43:05;-2.40;99.90
2030;DHT22;1020;48.854;8.830;2023-02-28T00:45:32;-2.40;99.90
2030;DHT22;1020;48.854;8.830;2023-02-28T00:48:00;-2.40;99.90
2030;DHT22;1020;48.854;8.830;2023-02-28T00:50:27;-2.40;99.90
2030;DHT22;1020;48.854;8.830;2023-02-28T00:52:53;-2.40;99.90
2030;DHT22;1020;48.854;8.830;2023-02-28T00:55:20;-2.50;99.90
2030;DHT22;1020;48.854;8.830;2023-02-28T00:57:47;-2.50;99.90
2030;DHT22;1020;48.854;8.830;2023-02-28T01:00:14;-2.50;99.90
2030;DHT22;1020;48.854;8.830;2023-02-28T01:02:41;-2.50;1.00
2030;DHT22;1020;48.854;8.830;2023-02-28T01:05:09;-2.60;1.00
2030;DHT22;1020;48.854;8.830;2023-02-28T01:07:36;-2.60;1.00
2030;DHT22;1020;48.854;8.830;2023-02-28T01:10:04;-2.60;1.00
2030;DHT22;1020;48.854;8.830;2023-02-28T01:12:31;-2.60;1.00
2030;DHT22;1020;48.854;8.830;2023-02-28T01:14:58;-2.60;1.00
2030;DHT22;1020;48.854;8.830;2023-02-28T01:17:24;-2.70;1.00
2030;DHT22;1020;48.854;8.830;2023-02-28T01:19:53;-2.60;1.00
2030;DHT22;1020;48.854;8.830;2023-02-28T01:22:22;-2.60;1.00
2030;DHT22;1020;48.854;8.830;2023-02-28T01:24:48;-2.60;1.00
2030;DHT22;1020;48.854;8.830;2023-02-28T01:27:15;-2.60;1.00
2030;DHT22;1020;48.854;8.830;2023-02-28T01:29:42;-2.70;1.00
2030;DHT22;1020;48.854;8.830;2023-02-28T01:32:08;-2.60;1.00
2030;DHT22;1020;48.854;8.830;2023-02-28T01:34:35;-2.70;1.00
2030;DHT22;1020;48.854;8.830;2023-02-28T01:37:02;-2.70;1.00
2030;DHT22;1020;48.854;8.830;2023-02-28T01:39:30;-2.70;1.00
2030;DHT22;1020;48.854;8.830;2023-02-28T01:41:57;-2.70;1.00
2030;DHT22;1020;48.854;8.830;2023-02-28T01:44:55;-2.70;1.00
2030;DHT22;1020;48.854;8.830;2023-02-28T01:47:24;-2.70;1.00
2030;DHT22;1020;48.854;8.830;2023-02-28T01:49:51;-2.70;1.00
2030;DHT22;1020;48.854;8.830;2023-02-28T01:52:19;-2.80;1.00
2030;DHT22;1020;48.854;8.830;2023-02-28T01:54:51;-2.80;1.00
2030;DHT22;1020;48.854;8.830;2023-02-28T01:57:20;-2.80;1.00
2030;DHT22;1020;48.854;8.830;2023-02-28T01:59:53;-2.80;1.00
2030;DHT22;1020;48.854;8.830;2023-02-28T02:02:22;-2.80;17.10
2030;DHT22;1020;48.854;8.830;2023-02-28T02:04:53;-2.80;8.10
2030;DHT22;1020;48.854;8.830;2023-02-28T02:07:21;-2.80;26.90
2030;DHT22;1020;48.854;8.830;2023-02-28T02:09:49;-2.80;37.40
2030;DHT22;1020;48.854;8.830;2023-02-28T02:12:25;-2.90;58.20
2030;DHT22;1020;48.854;8.830;2023-02-28T02:15:02;-2.90;99.70
2030;DHT22;1020;48.854;8.830;2023-02-28T02:17:34;-2.90;99.90
2030;DHT22;1020;48.854;8.830;2023-02-28T02:20:44;-2.90;99.90
2030;DHT22;1020;48.854;8.830;2023-02-28T02:26:53;-2.90;99.90
2030;DHT22;1020;48.854;8.830;2023-02-28T02:33:02;-2.90;99.90
2030;DHT22;1020;48.854;8.830;2023-02-28T02:35:35;-2.80;99.90
2030;DHT22;1020;48.854;8.830;2023-02-28T02:38:09;-2.90;99.90
2030;DHT22;1020;48.854;8.830;2023-02-28T02:40:42;-2.90;99.90
2030;DHT22;1020;48.854;8.830;2023-02-28T02:43:15;-2.90;99.90
2030;DHT22;1020;48.854;8.830;2023-02-28T02:45:46;-2.90;1.00
2030;DHT22;1020;48.854;8.830;2023-02-28T02:48:20;-2.90;1.00
2030;DHT22;1020;48.854;8.830;2023-02-28T02:50:51;-2.80;1.00
2030;DHT22;1020;48.854;8.830;2023-02-28T02:53:23;-2.80;1.00
2030;DHT22;1020;48.854;8.830;2023-02-28T02:55:51;-2.80;1.00
2030;DHT22;1020;48.854;8.830;2023-02-28T02:58:24;-2.80;1.00
2030;DHT22;1020;48.854;8.830;2023-02-28T03:00:53;-2.80;1.00
2030;DHT22;1020;48.854;8.830;2023-02-28T03:03:22;-2.80;1.00
2030;DHT22;1020;48.854;8.830;2023-02-28T03:05:56;-2.80;1.00
2030;DHT22;1020;48.854;8.830;2023-02-28T03:08:23;-2.80;1.00
2030;DHT22;1020;48.854;8.830;2023-02-28T03:10:51;-2.80;1.00
2030;DHT22;1020;48.854;8.830;2023-02-28T03:13:44;-2.80;1.00
2030;DHT22;1020;48.854;8.830;2023-02-28T03:16:41;-2.80;1.00
2030;DHT22;1020;48.854;8.830;2023-02-28T03:19:33;-2.80;1.00
2030;DHT22;1020;48.854;8.830;2023-02-28T03:22:14;-2.70;1.00
2030;DHT22;1020;48.854;8.830;2023-02-28T03:24:48;-2.70;1.00
2030;DHT22;1020;48.854;8.830;2023-02-28T03:27:19;-2.70;1.00
2030;DHT22;1020;48.854;8.830;2023-02-28T03:29:53;-2.70;1.00
2030;DHT22;1020;48.854;8.830;2023-02-28T03:32:26;-2.60;1.00
2030;DHT22;1020;48.854;8.830;2023-02-28T03:34:58;-2.60;1.00
2030;DHT22;1020;48.854;8.830;2023-02-28T03:37:31;-2.60;1.00
2030;DHT22;1020;48.854;8.830;2023-02-28T03:40:03;-2.60;1.00
2030;DHT22;1020;48.854;8.830;2023-02-28T03:42:35;-2.60;1.00
2030;DHT22;1020;48.854;8.830;2023-02-28T03:45:05;-2.60;1.00
2030;DHT22;1020;48.854;8.830;2023-02-28T03:47:37;-2.70;1.00
2030;DHT22;1020;48.854;8.830;2023-02-28T03:50:09;-2.60;1.00
2030;DHT22;1020;48.854;8.830;2023-02-28T03:52:42;-2.70;1.00
2030;DHT22;1020;48.854;8.830;2023-02-28T03:55:12;-2.60;1.00
2030;DHT22;1020;48.854;8.830;2023-02-28T03:57:45;-2.60;1.00
2030;DHT22;1020;48.854;8.830;2023-02-28T04:00:17;-2.60;1.00
2030;DHT22;1020;48.854;8.830;2023-02-28T04:02:45;-2.60;1.00
2030;DHT22;1020;48.854;8.830;2023-02-28T04:05:18;-2.50;1.00
2030;DHT22;1020;48.854;8.830;2023-02-28T04:07:46;-2.50;1.00
2030;DHT22;1020;48.854;8.830;2023-02-28T04:10:14;-2.50;1.00
2030;DHT22;1020;48.854;8.830;2023-02-28T04:12:41;-2.40;1.00
2030;DHT22;1020;48.854;8.830;2023-02-28T04:15:08;-2.30;1.00
2030;DHT22;1020;48.854;8.830;2023-02-28T04:17:36;-2.40;1.00
2030;DHT22;1020;48.854;8.830;2023-02-28T04:20:03;-2.40;1.00
2030;DHT22;1020;48.854;8.830;2023-02-28T04:22:35;-2.40;1.00
2030;DHT22;1020;48.854;8.830;2023-02-28T04:25:04;-2.40;1.00
2030;DHT22;1020;48.854;8.830;2023-02-28T04:27:31;-2.50;99.90
2030;DHT22;1020;48.854;8.830;2023-02-28T04:29:58;-2.50;99.90
2030;DHT22;1020;48.854;8.830;2023-02-28T04:32:25;-2.50;99.90
2030;DHT22;1020;48.854;8.830;2023-02-28T04:34:52;-2.50;99.90
2030;DHT22;1020;48.854;8.830;2023-02-28T04:37:18;-2.40;99.90
2030;DHT22;1020;48.854;8.830;2023-02-28T04:39:45;-2.40;99.90
2030;DHT22;1020;48.854;8.830;2023-02-28T04:42:13;-2.30;99.90
2030;DHT22;1020;48.854;8.830;2023-02-28T04:44:40;-2.40;99.90
2030;DHT22;1020;48.854;8.830;2023-02-28T04:47:07;-2.30;1.00
2030;DHT22;1020;48.854;8.830;2023-02-28T04:49:33;-2.30;74.80
2030;DHT22;1020;48.854;8.830;2023-02-28T04:52:00;-2.30;99.90
2030;DHT22;1020;48.854;8.830;2023-02-28T04:54:27;-2.40;99.90
2030;DHT22;1020;48.854;8.830;2023-02-28T04:56:55;-2.50;1.00
2030;DHT22;1020;48.854;8.830;2023-02-28T04:59:24;-2.50;93.10
2030;DHT22;1020;48.854;8.830;2023-02-28T05:01:50;-2.40;1.00
2030;DHT22;1020;48.854;8.830;2023-02-28T05:04:17;-2.40;1.00
2030;DHT22;1020;48.854;8.830;2023-02-28T05:06:44;-2.30;99.90
2030;DHT22;1020;48.854;8.830;2023-02-28T05:09:11;-2.30;99.90
2030;DHT22;1020;48.854;8.830;2023-02-28T05:11:38;-2.20;99.90
2030;DHT22;1020;48.854;8.830;2023-02-28T05:14:06;-2.10;99.90
2030;DHT22;1020;48.854;8.830;2023-02-28T05:16:37;-2.10;99.90
2030;DHT22;1020;48.854;8.830;2023-02-28T05:19:03;-2.00;1.00
2030;DHT22;1020;48.854;8.830;2023-02-28T05:21:32;-2.10;1.00
2030;DHT22;1020;48.854;8.830;2023-02-28T05:24:01;-2.20;1.00
2030;DHT22;1020;48.854;8.830;2023-02-28T05:26:29;-2.20;99.90
2030;DHT22;1020;48.854;8.830;2023-02-28T05:28:56;-2.10;1.00
2030;DHT22;1020;48.854;8.830;2023-02-28T05:31:23;-2.10;99.90
2030;DHT22;1020;48.854;8.830;2023-02-28T05:33:51;-2.10;1.00
2030;DHT22;1020;48.854;8.830;2023-02-28T05:36:19;-2.10;19.50
2030;DHT22;1020;48.854;8.830;2023-02-28T05:38:46;-2.10;99.90
2030;DHT22;1020;48.854;8.830;2023-02-28T05:41:14;-2.10;99.90
2030;DHT22;1020;48.854;8.830;2023-02-28T05:43:41;-2.00;20.50
2030;DHT22;1020;48.854;8.830;2023-02-28T05:46:09;-1.90;1.00
2030;DHT22;1020;48.854;8.830;2023-02-28T05:48:37;-1.80;8.00
2030;DHT22;1020;48.854;8.830;2023-02-28T05:51:06;-1.80;1.00
2030;DHT22;1020;48.854;8.830;2023-02-28T05:53:34;-1.70;1.00
2030;DHT22;1020;48.854;8.830;2023-02-28T05:56:01;-1.80;99.90
2030;DHT22;1020;48.854;8.830;2023-02-28T05:58:28;-1.90;1.00
2030;DHT22;1020;48.854;8.830;2023-02-28T06:00:56;-1.80;1.00
2030;DHT22;1020;48.854;8.830;2023-02-28T06:03:23;-1.80;1.00
2030;DHT22;1020;48.854;8.830;2023-02-28T06:05:50;-1.80;1.00
2030;DHT22;1020;48.854;8.830;2023-02-28T06:08:18;-1.80;1.00
2030;DHT22;1020;48.854;8.830;2023-02-28T06:10:45;-1.80;1.00
2030;DHT22;1020;48.854;8.830;2023-02-28T06:13:12;-1.80;1.00
2030;DHT22;1020;48.854;8.830;2023-02-28T06:15:39;-1.80;99.90
2030;DHT22;1020;48.854;8.830;2023-02-28T06:18:06;-1.80;1.00
2030;DHT22;1020;48.854;8.830;2023-02-28T06:20:32;-1.70;99.90
2030;DHT22;1020;48.854;8.830;2023-02-28T06:23:00;-1.80;99.90
2030;DHT22;1020;48.854;8.830;2023-02-28T06:25:28;-1.70;99.90
2030;DHT22;1020;48.854;8.830;2023-02-28T06:27:55;-1.70;99.90
2030;DHT22;1020;48.854;8.830;2023-02-28T06:30:22;-1.70;6.00
2030;DHT22;1020;48.854;8.830;2023-02-28T06:32:50;-1.80;5.70
2030;DHT22;1020;48.854;8.830;2023-02-28T06:35:17;-1.70;10.20
2030;DHT22;1020;48.854;8.830;2023-02-28T06:37:44;-1.70;1.00
2030;DHT22;1020;48.854;8.830;2023-02-28T06:40:13;-1.70;1.00
2030;DHT22;1020;48.854;8.830;2023-02-28T06:42:41;-1.60;1.00
2030;DHT22;1020;48.854;8.830;2023-02-28T06:45:08;-1.70;1.00
2030;DHT22;1020;48.854;8.830;2023-02-28T06:47:36;-1.60;1.00
2030;DHT22;1020;48.854;8.830;2023-02-28T06:50:04;-1.60;1.00
2030;DHT22;1020;48.854;8.830;2023-02-28T06:52:31;-1.60;1.00
2030;DHT22;1020;48.854;8.830;2023-02-28T06:54:57;-1.70;1.00
2030;DHT22;1020;48.854;8.830;2023-02-28T06:57:27;-1.70;1.00
2030;DHT22;1020;48.854;8.830;2023-02-28T06:59:58;-1.70;1.00
2030;DHT22;1020;48.854;8.830;2023-02-28T07:02:25;-1.70;1.00
2030;DHT22;1020;48.854;8.830;2023-02-28T07:04:51;-1.70;1.00
2030;DHT22;1020;48.854;8.830;2023-02-28T07:07:18;-1.60;1.00
2030;DHT22;1020;48.854;8.830;2023-02-28T07:09:45;-1.50;1.00
2030;DHT22;1020;48.854;8.830;2023-02-28T07:12:12;-1.50;1.00
2030;DHT22;1020;48.854;8.830;2023-02-28T07:14:38;-1.50;99.90
2030;DHT22;1020;48.854;8.830;2023-02-28T07:17:08;-1.40;99.90
2030;DHT22;1020;48.854;8.830;2023-02-28T07:19:37;-1.40;99.90
2030;DHT22;1020;48.854;8.830;2023-02-28T07:22:04;-1.30;99.90
2030;DHT22;1020;48.854;8.830;2023-02-28T07:24:31;-1.30;99.90
2030;DHT22;1020;48.854;8.830;2023-02-28T07:26:57;-1.30;99.90
2030;DHT22;1020;48.854;8.830;2023-02-28T07:29:24;-1.30;99.90
2030;DHT22;1020;48.854;8.830;2023-02-28T07:31:51;-1.30;99.90
2030;DHT22;1020;48.854;8.830;2023-02-28T07:34:20;-1.30;99.90
2030;DHT22;1020;48.854;8.830;2023-02-28T07:36:47;-1.30;99.90
2030;DHT22;1020;48.854;8.830;2023-02-28T07:39:13;-1.20;99.90
2030;DHT22;1020;48.854;8.830;2023-02-28T07:41:40;-1.00;99.90
2030;DHT22;1020;48.854;8.830;2023-02-28T07:44:09;-1.00;99.90
2030;DHT22;1020;48.854;8.830;2023-02-28T07:46:36;-1.00;99.90
2030;DHT22;1020;48.854;8.830;2023-02-28T07:49:03;-0.90;99.90
2030;DHT22;1020;48.854;8.830;2023-02-28T07:51:32;-0.90;99.90
2030;DHT22;1020;48.854;8.830;2023-02-28T07:53:59;-0.90;99.90
2030;DHT22;1020;48.854;8.830;2023-02-28T07:56:26;-0.80;99.90
2030;DHT22;1020;48.854;8.830;2023-02-28T07:58:52;-0.70;99.90
2030;DHT22;1020;48.854;8.830;2023-02-28T08:01:19;-0.80;96.40
2030;DHT22;1020;48.854;8.830;2023-02-28T08:03:46;-0.80;62.10
2030;DHT22;1020;48.854;8.830;2023-02-28T08:06:17;-0.90;75.00
2030;DHT22;1020;48.854;8.830;2023-02-28T08:08:45;-0.80;90.10
2030;DHT22;1020;48.854;8.830;2023-02-28T08:11:12;-0.80;66.40
2030;DHT22;1020;48.854;8.830;2023-02-28T08:13:39;-0.90;47.90
2030;DHT22;1020;48.854;8.830;2023-02-28T08:16:07;-1.00;18.00
2030;DHT22;1020;48.854;8.830;2023-02-28T08:18:34;-0.90;25.40
2030;DHT22;1020;48.854;8.830;2023-02-28T08:21:06;-0.90;47.70
2030;DHT22;1020;48.854;8.830;2023-02-28T08:23:32;-0.80;43.90
2030;DHT22;1020;48.854;8.830;2023-02-28T08:26:02;-0.80;11.80
2030;DHT22;1020;48.854;8.830;2023-02-28T08:28:29;-0.90;1.00
2030;DHT22;1020;48.854;8.830;2023-02-28T08:30:56;-0.90;1.00
2030;DHT22;1020;48.854;8.830;2023-02-28T08:33:23;-0.80;1.00
2030;DHT22;1020;48.854;8.830;2023-02-28T08:35:53;-0.90;1.00
2030;DHT22;1020;48.854;8.830;2023-02-28T08:38:20;-0.90;1.00
2030;DHT22;1020;48.854;8.830;2023-02-28T08:40:47;-0.90;1.00
2030;DHT22;1020;48.854;8.830;2023-02-28T08:43:15;-0.90;1.00
2030;DHT22;1020;48.854;8.830;2023-02-28T08:45:42;-0.80;1.00
2030;DHT22;1020;48.854;8.830;2023-02-28T08:48:09;-0.70;1.00
2030;DHT22;1020;48.854;8.830;2023-02-28T08:50:35;-0.70;1.00
2030;DHT22;1020;48.854;8.830;2023-02-28T08:53:02;-0.70;1.00
2030;DHT22;1020;48.854;8.830;2023-02-28T08:55:29;-0.70;1.00
2030;DHT22;1020;48.854;8.830;2023-02-28T08:57:57;-0.60;1.00
2030;DHT22;1020;48.854;8.830;2023-02-28T09:00:25;-0.50;1.00
2030;DHT22;1020;48.854;8.830;2023-02-28T09:02:51;-0.40;1.00
2030;DHT22;1020;48.854;8.830;2023-02-28T09:05:20;-0.30;1.00
2030;DHT22;1020;48.854;8.830;2023-02-28T09:07:46;-0.30;1.00
2030;DHT22;1020;48.854;8.830;2023-02-28T09:10:13;-0.20;1.00
2030;DHT22;1020;48.854;8.830;2023-02-28T09:12:40;-0.30;1.00
2030;DHT22;1020;48.854;8.830;2023-02-28T09:15:08;-0.30;1.00
2030;DHT22;1020;48.854;8.830;2023-02-28T09:17:36;-0.30;1.00
2030;DHT22;1020;48.854;8.830;2023-02-28T09:20:04;-0.30;1.00
2030;DHT22;1020;48.854;8.830;2023-02-28T09:22:31;-0.30;1.00
2030;DHT22;1020;48.854;8.830;2023-02-28T09:24:57;-0.20;1.00
2030;DHT22;1020;48.854;8.830;2023-02-28T09:27:24;-0.20;1.00
2030;DHT22;1020;48.854;8.830;2023-02-28T09:29:51;-0.20;1.00
2030;DHT22;1020;48.854;8.830;2023-02-28T09:32:18;0.00;1.00
2030;DHT22;1020;48.854;8.830;2023-02-28T09:34:46;0.00;1.00
2030;DHT22;1020;48.854;8.830;2023-02-28T09:37:12;0.00;1.00
2030;DHT22;1020;48.854;8.830;2023-02-28T09:39:39;-0.10;1.00
2030;DHT22;1020;48.854;8.830;2023-02-28T09:42:11;-0.10;1.00
2030;DHT22;1020;48.854;8.830;2023-02-28T09:44:45;0.00;1.00
2030;DHT22;1020;48.854;8.830;2023-02-28T09:47:27;0.20;1.00
2030;DHT22;1020;48.854;8.830;2023-02-28T09:50:00;0.20;1.00
2030;DHT22;1020;48.854;8.830;2023-02-28T09:52:30;0.30;1.00
2030;DHT22;1020;48.854;8.830;2023-02-28T09:55:04;0.40;1.00
2030;DHT22;1020;48.854;8.830;2023-02-28T09:57:40;0.70;1.00
2030;DHT22;1020;48.854;8.830;2023-02-28T10:00:13;0.80;1.00
2030;DHT22;1020;48.854;8.830;2023-02-28T10:02:52;0.90;1.00
2030;DHT22;1020;48.854;8.830;2023-02-28T10:05:22;1.10;1.00
2030;DHT22;1020;48.854;8.830;2023-02-28T10:08:10;0.80;1.00
2030;DHT22;1020;48.854;8.830;2023-02-28T10:10:40;0.80;1.00
2030;DHT22;1020;48.854;8.830;2023-02-28T10:13:14;0.90;1.00
2030;DHT22;1020;48.854;8.830;2023-02-28T10:15:45;0.90;1.00
2030;DHT22;1020;48.854;8.830;2023-02-28T10:18:15;1.00;1.00
2030;DHT22;1020;48.854;8.830;2023-02-28T10:20:49;1.00;1.00
2030;DHT22;1020;48.854;8.830;2023-02-28T10:23:20;1.10;1.00
2030;DHT22;1020;48.854;8.830;2023-02-28T10:25:53;1.10;1.00
2030;DHT22;1020;48.854;8.830;2023-02-28T10:28:20;1.20;1.00
2030;DHT22;1020;48.854;8.830;2023-02-28T10:30:48;1.00;99.90
2030;DHT22;1020;48.854;8.830;2023-02-28T10:33:20;1.00;99.90
2030;DHT22;1020;48.854;8.830;2023-02-28T10:35:49;1.00;99.90
2030;DHT22;1020;48.854;8.830;2023-02-28T10:38:19;1.00;99.90
2030;DHT22;1020;48.854;8.830;2023-02-28T10:40:46;0.90;99.90
2030;DHT22;1020;48.854;8.830;2023-02-28T10:43:23;1.00;99.90
2030;DHT22;1020;48.854;8.830;2023-02-28T10:45:59;1.00;99.90
2030;DHT22;1020;48.854;8.830;2023-02-28T10:48:34;1.10;99.90
2030;DHT22;1020;48.854;8.830;2023-02-28T10:51:04;1.10;99.90
2030;DHT22;1020;48.854;8.830;2023-02-28T10:53:37;1.30;99.90
2030;DHT22;1020;48.854;8.830;2023-02-28T10:56:14;1.20;99.90
2030;DHT22;1020;48.854;8.830;2023-02-28T10:58:49;1.40;99.90
2030;DHT22;1020;48.854;8.830;2023-02-28T11:01:18;1.50;99.90
2030;DHT22;1020;48.854;8.830;2023-02-28T11:03:45;1.80;99.90
2030;DHT22;1020;48.854;8.830;2023-02-28T11:06:17;2.00;99.90
2030;DHT22;1020;48.854;8.830;2023-02-28T11:08:47;2.30;99.90
2030;DHT22;1020;48.854;8.830;2023-02-28T11:11:14;2.40;99.90
2030;DHT22;1020;48.854;8.830;2023-02-28T11:13:44;2.50;99.90
2030;DHT22;1020;48.854;8.830;2023-02-28T11:16:13;2.40;99.90
2030;DHT22;1020;48.854;8.830;2023-02-28T11:18:44;2.50;99.90
2030;DHT22;1020;48.854;8.830;2023-02-28T11:21:19;2.50;99.90
2030;DHT22;1020;48.854;8.830;2023-02-28T11:23:49;2.60;99.90
2030;DHT22;1020;48.854;8.830;2023-02-28T11:26:35;2.70;99.90
2030;DHT22;1020;48.854;8.830;2023-02-28T11:29:11;2.80;99.90
2030;DHT22;1020;48.854;8.830;2023-02-28T11:31:37;3.00;99.90
2030;DHT22;1020;48.854;8.830;2023-02-28T11:34:23;3.30;99.90
2030;DHT22;1020;48.854;8.830;2023-02-28T11:36:54;3.60;99.90
2030;DHT22;1020;48.854;8.830;2023-02-28T11:39:22;3.90;99.90
2030;DHT22;1020;48.854;8.830;2023-02-28T11:42:07;4.10;99.90
2030;DHT22;1020;48.854;8.830;2023-02-28T11:44:47;4.30;99.90
2030;DHT22;1020;48.854;8.830;2023-02-28T11:47:28;3.90;99.90
2030;DHT22;1020;48.854;8.830;2023-02-28T11:50:16;4.00;99.90
2030;DHT22;1020;48.854;8.830;2023-02-28T11:52:52;4.40;99.90
2030;DHT22;1020;48.854;8.830;2023-02-28T11:55:23;4.20;99.90
2030;DHT22;1020;48.854;8.830;2023-02-28T11:58:09;4.30;99.90
2030;DHT22;1020;48.854;8.830;2023-02-28T12:00:54;4.10;99.90
2030;DHT22;1020;48.854;8.830;2023-02-28T12:03:33;4.00;99.90
2030;DHT22;1020;48.854;8.830;2023-02-28T12:06:15;4.50;99.90
2030;DHT22;1020;48.854;8.830;2023-02-28T12:08:52;4.60;99.90
2030;DHT22;1020;48.854;8.830;2023-02-28T12:11:31;4.90;99.90
2030;DHT22;1020;48.854;8.830;2023-02-28T12:14:31;4.80;99.90
2030;DHT22;1020;48.854;8.830;2023-02-28T12:17:17;4.90;99.90
2030;DHT22;1020;48.854;8.830;2023-02-28T12:19:50;4.90;99.90
2030;DHT22;1020;48.854;8.830;2023-02-28T12:22:29;5.10;99.90
2030;DHT22;1020;48.854;8.830;2023-02-28T12:25:24;5.00;99.90
2030;DHT22;1020;48.854;8.830;2023-02-28T12:27:58;5.10;99.90
2030;DHT22;1020;48.854;8.830;2023-02-28T12:30:27;4.90;99.90
2030;DHT22;1020;48.854;8.830;2023-02-28T12:32:58;5.00;99.90
2030;DHT22;1020;48.854;8.830;2023-02-28T12:35:32;5.00;99.90
2030;DHT22;1020;48.854;8.830;2023-02-28T12:38:04;4.90;99.90
2030;DHT22;1020;48.854;8.830;2023-02-28T12:40:43;5.20;99.90
2030;DHT22;1020;48.854;8.830;2023-02-28T12:43:13;5.70;99.90
2030;DHT22;1020;48.854;8.830;2023-02-28T12:45:45;6.00;99.90
2030;DHT22;1020;48.854;8.830;2023-02-28T12:48:28;6.40;99.90
2030;DHT22;1020;48.854;8.830;2023-02-28T12:50:56;7.30;99.90
2030;DHT22;1020;48.854;8.830;2023-02-28T12:53:25;8.20;99.90
2030;DHT22;1020;48.854;8.830;2023-02-28T12:56:03;8.90;99.90
2030;DHT22;1020;48.854;8.830;2023-02-28T12:58:34;9.30;99.90
2030;DHT22;1020;48.854;8.830;2023-02-28T13:01:26;9.20;99.90
2030;DHT22;1020;48.854;8.830;2023-02-28T13:07:12;9.20;99.90
2030;DHT22;1020;48.854;8.830;2023-02-28T13:09:40;8.60;99.90
2030;DHT22;1020;48.854;8.830;2023-02-28T13:12:14;8.20;99.90
2030;DHT22;1020;48.854;8.830;2023-02-28T13:14:42;8.20;99.90
2030;DHT22;1020;48.854;8.830;2023-02-28T13:17:15;7.90;99.90
2030;DHT22;1020;48.854;8.830;2023-02-28T13:19:46;8.20;99.90
2030;DHT22;1020;48.854;8.830;2023-02-28T13:22:37;8.30;99.90
2030;DHT22;1020;48.854;8.830;2023-02-28T13:34:42;9.10;99.90
2030;DHT22;1020;48.854;8.830;2023-02-28T13:37:35;9.40;99.90
2030;DHT22;1020;48.854;8.830;2023-02-28T13:40:29;9.50;99.90
2030;DHT22;1020;48.854;8.830;2023-02-28T13:43:02;9.80;99.90
2030;DHT22;1020;48.854;8.830;2023-02-28T13:45:29;9.40;99.90
2030;DHT22;1020;48.854;8.830;2023-02-28T13:48:04;9.30;99.90
2030;DHT22;1020;48.854;8.830;2023-02-28T13:50:34;9.40;99.90
2030;DHT22;1020;48.854;8.830;2023-02-28T13:53:36;8.80;99.90
2030;DHT22;1020;48.854;8.830;2023-02-28T13:56:10;9.10;99.90
2030;DHT22;1020;48.854;8.830;2023-02-28T13:58:51;9.40;99.90
2030;DHT22;1020;48.854;8.830;2023-02-28T14:01:42;9.50;99.90
2030;DHT22;1020;48.854;8.830;2023-02-28T14:07:20;8.70;99.90
2030;DHT22;1020;48.854;8.830;2023-02-28T14:09:54;8.50;99.90
2030;DHT22;1020;48.854;8.830;2023-02-28T14:12:54;8.60;99.90
2030;DHT22;1020;48.854;8.830;2023-02-28T14:15:40;9.00;99.90
2030;DHT22;1020;48.854;8.830;2023-02-28T14:18:19;9.30;99.90
2030;DHT22;1020;48.854;8.830;2023-02-28T14:20:48;9.10;99.90
2030;DHT22;1020;48.854;8.830;2023-02-28T14:23:26;9.20;99.90
2030;DHT22;1020;48.854;8.830;2023-02-28T14:26:02;9.40;99.90
2030;DHT22;1020;48.854;8.830;2023-02-28T14:28:46;9.20;99.90
2030;DHT22;1020;48.854;8.830;2023-02-28T14:31:21;9.40;99.90
2030;DHT22;1020;48.854;8.830;2023-02-28T14:34:20;9.80;99.90
2030;DHT22;1020;48.854;8.830;2023-02-28T14:36:48;10.10;99.90
2030;DHT22;1020;48.854;8.830;2023-02-28T14:39:21;10.00;99.90
2030;DHT22;1020;48.854;8.830;2023-02-28T14:41:48;10.00;99.90
2030;DHT22;1020;48.854;8.830;2023-02-28T14:44:18;9.90;99.90
2030;DHT22;1020;48.854;8.830;2023-02-28T14:46:46;9.80;99.90
2030;DHT22;1020;48.854;8.830;2023-02-28T14:49:19;9.80;99.90
2030;DHT22;1020;48.854;8.830;2023-02-28T14:51:48;9.80;99.90
2030;DHT22;1020;48.854;8.830;2023-02-28T14:54:19;9.60;99.90
2030;DHT22;1020;48.854;8.830;2023-02-28T14:56:50;9.30;99.90
2030;DHT22;1020;48.854;8.830;2023-02-28T14:59:26;8.90;99.90
2030;DHT22;1020;48.854;8.830;2023-02-28T15:02:21;8.80;99.90
2030;DHT22;1020;48.854;8.830;2023-02-28T15:04:56;8.80;99.90
2030;DHT22;1020;48.854;8.830;2023-02-28T15:07:23;8.90;99.90
2030;DHT22;1020;48.854;8.830;2023-02-28T15:10:13;8.80;99.90
2030;DHT22;1020;48.854;8.830;2023-02-28T15:12:48;8.80;99.90
2030;DHT22;1020;48.854;8.830;2023-02-28T15:15:16;8.80;99.90
2030;DHT22;1020;48.854;8.830;2023-02-28T15:17:46;8.60;99.90
2030;DHT22;1020;48.854;8.830;2023-02-28T15:20:16;8.60;99.90
2030;DHT22;1020;48.854;8.830;2023-02-28T15:22:45;8.50;99.90
2030;DHT22;1020;48.854;8.830;2023-02-28T15:25:18;8.10;99.90
2030;DHT22;1020;48.854;8.830;2023-02-28T15:27:47;7.90;99.90
2030;DHT22;1020;48.854;8.830;2023-02-28T15:30:17;7.50;99.90
2030;DHT22;1020;48.854;8.830;2023-02-28T15:32:44;7.40;99.90
2030;DHT22;1020;48.854;8.830;2023-02-28T15:35:18;7.40;99.90
2030;DHT22;1020;48.854;8.830;2023-02-28T15:37:47;7.30;99.90
2030;DHT22;1020;48.854;8.830;2023-02-28T15:40:26;7.10;99.90
2030;DHT22;1020;48.854;8.830;2023-02-28T15:43:04;7.10;99.90
2030;DHT22;1020;48.854;8.830;2023-02-28T15:45:39;7.20;99.90
2030;DHT22;1020;48.854;8.830;2023-02-28T15:48:16;7.10;99.90
2030;DHT22;1020;48.854;8.830;2023-02-28T15:50:44;6.80;99.90
2030;DHT22;1020;48.854;8.830;2023-02-28T15:53:16;6.70;99.90
2030;DHT22;1020;48.854;8.830;2023-02-28T15:55:45;6.60;99.90
2030;DHT22;1020;48.854;8.830;2023-02-28T15:58:18;6.80;99.90
2030;DHT22;1020;48.854;8.830;2023-02-28T16:01:07;6.70;99.90
2030;DHT22;1020;48.854;8.830;2023-02-28T16:03:40;6.70;99.90
2030;DHT22;1020;48.854;8.830;2023-02-28T16:06:36;6.60;99.90
2030;DHT22;1020;48.854;8.830;2023-02-28T16:09:05;6.60;99.90
2030;DHT22;1020;48.854;8.830;2023-02-28T16:11:37;6.60;99.90
2030;DHT22;1020;48.854;8.830;2023-02-28T16:14:05;6.50;99.90
2030;DHT22;1020;48.854;8.830;2023-02-28T16:16:32;6.30;99.90
2030;DHT22;1020;48.854;8.830;2023-02-28T16:18:59;6.00;99.90
2030;DHT22;1020;48.854;8.830;2023-02-28T16:21:26;5.90;99.90
2030;DHT22;1020;48.854;8.830;2023-02-28T16:23:53;5.80;99.90
2030;DHT22;1020;48.854;8.830;2023-02-28T16:26:23;5.70;99.90
2030;DHT22;1020;48.854;8.830;2023-02-28T16:28:54;5.60;99.90
2030;DHT22;1020;48.854;8.830;2023-02-28T16:31:21;5.30;99.90
2030;DHT22;1020;48.854;8.830;2023-02-28T16:33:48;5.10;99.90
2030;DHT22;1020;48.854;8.830;2023-02-28T16:36:17;5.10;99.90
2030;DHT22;1020;48.854;8.830;2023-02-28T16:38:44;5.10;99.90
2030;DHT22;1020;48.854;8.830;2023-02-28T16:41:12;5.10;99.90
2030;DHT22;1020;48.854;8.830;2023-02-28T16:43:44;5.00;99.90
2030;DHT22;1020;48.854;8.830;2023-02-28T16:46:13;5.00;99.90
2030;DHT22;1020;48.854;8.830;2023-02-28T16:48:39;4.90;99.90
2030;DHT22;1020;48.854;8.830;2023-02-28T16:51:11;4.80;99.90
2030;DHT22;1020;48.854;8.830;2023-02-28T16:53:37;4.60;99.90
2030;DHT22;1020;48.854;8.830;2023-02-28T16:56:05;4.40;99.90
2030;DHT22;1020;48.854;8.830;2023-02-28T16:58:33;4.20;99.90
2030;DHT22;1020;48.854;8.830;2023-02-28T17:01:01;3.90;99.90
2030;DHT22;1020;48.854;8.830;2023-02-28T17:03:29;3.70;99.90